createdAt,value
2022-07-27T00:01:59.349Z,99212.73
2022-07-27T00:05:01.131Z,99212.62
2022-07-27T00:08:02.830Z,99217.77
2022-07-27T00:11:05.222Z,99215.36
2022-07-27T00:14:07.183Z,99219.06
2022-07-27T00:17:08.885Z,99216.92
2022-07-27T00:20:10.998Z,99212.20
2022-07-27T00:23:12.964Z,99209.15
2022-07-27T00:26:14.863Z,99205.73
2022-07-27T00:29:16.655Z,99206.13
2022-07-27T00:32:18.428Z,99208.21
2022-07-27T00:35:20.161Z,99207.85
2022-07-27T00:38:22.029Z,99205.95
2022-07-27T00:41:23.812Z,99216.38
2022-07-27T00:44:26.729Z,99220.55
2022-07-27T00:47:28.494Z,99224.74
2022-07-27T00:50:30.366Z,99222.19
2022-07-27T00:53:32.043Z,99223.79
2022-07-27T00:56:33.982Z,99223.45
2022-07-27T00:59:35.897Z,99222.83
2022-07-27T01:02:37.990Z,99221.79
2022-07-27T01:05:48.051Z,99217.47
2022-07-27T01:08:49.942Z,99216.52
2022-07-27T01:11:51.761Z,99221.58
2022-07-27T01:14:54.394Z,99222.02
2022-07-27T01:17:56.193Z,99221.80
2022-07-27T01:20:59.815Z,99224.79
2022-07-27T01:24:02.071Z,99226.74
2022-07-27T01:27:05.872Z,99228.92
2022-07-27T01:30:26.519Z,99234.23
2022-07-27T01:33:28.513Z,99229.55
2022-07-27T01:36:30.264Z,99227.62
2022-07-27T01:39:32.885Z,99227.27
2022-07-27T01:42:35.568Z,99224.48
2022-07-27T01:45:37.471Z,99227.30
2022-07-27T01:48:39.572Z,99227.52
2022-07-27T01:51:41.580Z,99222.38
2022-07-27T01:54:43.351Z,99221.89
2022-07-27T01:57:45.227Z,99222.20
2022-07-27T02:00:49.013Z,99219.31
2022-07-27T02:03:50.736Z,99223.66
2022-07-27T02:06:52.475Z,99227.39
2022-07-27T02:09:54.211Z,99224.47
2022-07-27T02:12:55.978Z,99227.14
2022-07-27T02:15:58.423Z,99224.49
2022-07-27T02:19:00.293Z,99228.37
2022-07-27T02:22:06.709Z,99228.95
2022-07-27T02:25:09.170Z,99223.59
2022-07-27T02:28:10.915Z,99221.09
2022-07-27T02:31:12.683Z,99218.91
2022-07-27T02:34:14.443Z,99218.50
2022-07-27T02:37:16.558Z,99216.14
2022-07-27T02:40:18.804Z,99219.53
2022-07-27T02:43:20.560Z,99220.08
2022-07-27T02:46:22.388Z,99221.57
2022-07-27T02:49:24.317Z,99225.64
2022-07-27T02:52:26.043Z,99226.80
2022-07-27T02:55:27.936Z,99231.20
2022-07-27T02:58:29.880Z,99243.95
2022-07-27T03:01:31.668Z,99249.02
2022-07-27T03:04:33.597Z,99250.31
2022-07-27T03:07:35.468Z,99252.34
2022-07-27T03:10:37.322Z,99256.29
2022-07-27T03:13:39.468Z,99259.46
2022-07-27T03:16:41.262Z,99266.92
2022-07-27T03:19:43.050Z,99267.37
2022-07-27T03:22:45.070Z,99275.09
2022-07-27T03:25:46.788Z,99279.44
2022-07-27T03:28:48.509Z,99277.90
2022-07-27T03:31:50.244Z,99276.91
2022-07-27T03:34:52.113Z,99273.48
2022-07-27T03:37:53.784Z,99274.92
2022-07-27T03:40:55.586Z,99279.85
2022-07-27T03:43:57.323Z,99281.26
2022-07-27T03:46:59.252Z,99280.25
2022-07-27T03:50:00.985Z,99284.34
2022-07-27T03:53:02.911Z,99283.97
2022-07-27T03:56:04.940Z,99287.95
2022-07-27T03:59:06.726Z,99284.90
2022-07-27T04:02:08.992Z,99278.85
2022-07-27T04:05:11.996Z,99281.01
2022-07-27T04:08:13.737Z,99282.09
2022-07-27T04:11:15.489Z,99278.45
2022-07-27T04:14:19.997Z,99283.96
2022-07-27T04:17:55.024Z,99280.47
2022-07-27T04:20:43.581Z,99279.86
2022-07-27T04:23:45.256Z,99285.32
2022-07-27T04:26:46.993Z,99289.52
2022-07-27T04:29:48.934Z,99296.91
2022-07-27T04:32:50.822Z,99299.23
2022-07-27T04:35:52.599Z,99303.30
2022-07-27T04:38:54.303Z,99303.23
2022-07-27T04:41:56.078Z,99297.30
2022-07-27T04:44:57.824Z,99301.00
2022-07-27T04:47:59.507Z,99302.91
2022-07-27T04:51:01.575Z,99304.73
2022-07-27T04:54:03.844Z,99307.83
2022-07-27T04:57:05.533Z,99301.84
2022-07-27T05:00:08.499Z,99303.98
2022-07-27T05:03:10.823Z,99307.46
2022-07-27T05:06:12.620Z,99298.73
2022-07-27T05:09:14.564Z,99297.90
2022-07-27T05:12:16.566Z,99300.44
2022-07-27T05:15:18.529Z,99309.11
2022-07-27T05:18:20.759Z,99305.91
2022-07-27T05:21:22.474Z,99305.49
2022-07-27T05:24:24.414Z,99307.18
2022-07-27T05:27:26.248Z,99306.55
2022-07-27T05:30:28.109Z,99311.48
2022-07-27T05:33:30.943Z,99305.16
2022-07-27T05:36:32.831Z,99306.29
2022-07-27T05:39:35.116Z,99308.50
2022-07-27T05:42:37.039Z,99314.70
2022-07-27T05:45:38.949Z,99320.14
2022-07-27T05:48:41.010Z,99316.20
2022-07-27T05:51:43.760Z,99319.48
2022-07-27T05:54:45.543Z,99325.06
2022-07-27T05:57:47.419Z,99329.27
2022-07-27T06:00:49.465Z,99332.59
2022-07-27T06:03:51.604Z,99330.59
2022-07-27T06:07:11.951Z,99331.10
2022-07-27T06:10:14.028Z,99321.33
2022-07-27T06:13:15.833Z,99321.89
2022-07-27T06:16:17.772Z,99327.73
2022-07-27T06:19:21.318Z,99330.70
2022-07-27T06:22:26.581Z,99329.91
2022-07-27T06:25:33.962Z,99329.98
2022-07-27T06:28:37.818Z,99333.56
2022-07-27T06:31:39.782Z,99342.21
2022-07-27T06:34:44.541Z,99344.13
2022-07-27T06:37:52.907Z,99347.27
2022-07-27T06:40:55.568Z,99348.20
2022-07-27T06:43:57.395Z,99350.95
2022-07-27T06:46:59.750Z,99347.34
2022-07-27T06:50:02.160Z,99351.56
2022-07-27T06:53:04.027Z,99346.88
2022-07-27T06:56:05.861Z,99343.31
2022-07-27T06:59:07.646Z,99341.40
2022-07-27T07:02:09.486Z,99342.55
2022-07-27T07:05:11.439Z,99340.23
2022-07-27T07:08:14.814Z,99333.05
2022-07-27T07:11:16.853Z,99331.59
2022-07-27T07:14:18.657Z,99334.65
2022-07-27T07:17:20.711Z,99336.64
2022-07-27T07:20:23.048Z,99343.64
2022-07-27T07:23:24.940Z,99346.06
2022-07-27T07:26:26.815Z,99354.05
2022-07-27T07:29:28.609Z,99352.10
2022-07-27T07:32:33.615Z,99359.34
2022-07-27T07:35:35.733Z,99365.73
2022-07-27T07:38:37.740Z,99371.34
2022-07-27T07:41:40.562Z,99371.30
2022-07-27T07:44:42.989Z,99370.73
2022-07-27T07:47:44.927Z,99371.83
2022-07-27T07:50:46.890Z,99371.99
2022-07-27T07:53:54.623Z,99370.27
2022-07-27T07:56:56.314Z,99374.05
2022-07-27T07:59:58.075Z,99373.75
2022-07-27T08:03:00.229Z,99368.38
2022-07-27T08:06:02.295Z,99373.14
2022-07-27T08:09:05.141Z,99369.39
2022-07-27T08:12:07.135Z,99382.52
2022-07-27T08:15:10.195Z,99388.62
2022-07-27T08:18:12.108Z,99394.02
2022-07-27T08:21:13.885Z,99394.77
2022-07-27T08:24:15.725Z,99389.98
2022-07-27T08:27:17.788Z,99396.29
2022-07-27T08:30:19.751Z,99396.29
2022-07-27T08:33:21.663Z,99399.01
2022-07-27T08:36:23.462Z,99402.48
2022-07-27T08:40:19.903Z,99401.92
2022-07-27T08:42:47.354Z,99401.13
2022-07-27T08:45:57.094Z,99398.37
2022-07-27T08:49:01.505Z,99393.26
2022-07-27T08:52:03.474Z,99388.77
2022-07-27T08:55:05.574Z,99387.38
2022-07-27T08:58:08.183Z,99381.27
2022-07-27T09:01:10.134Z,99371.49
2022-07-27T09:04:12.067Z,99372.06
2022-07-27T09:07:31.249Z,99373.83
2022-07-27T09:10:35.316Z,99374.53
2022-07-27T09:13:37.536Z,99375.98
2022-07-27T09:17:28.436Z,99378.26
2022-07-27T09:20:07.224Z,99385.85
2022-07-27T09:23:09.067Z,99384.48
2022-07-27T09:26:35.082Z,99387.83
2022-07-27T09:29:37.228Z,99392.71
2022-07-27T09:32:40.111Z,99386.41
2022-07-27T09:35:42.046Z,99384.80
2022-07-27T09:39:02.083Z,99380.36
2022-07-27T09:42:04.649Z,99376.30
2022-07-27T09:45:33.989Z,99367.50
2022-07-27T09:48:37.167Z,99372.06
2022-07-27T09:52:02.507Z,99363.88
2022-07-27T09:55:06.112Z,99367.33
2022-07-27T09:58:08.267Z,99364.21
2022-07-27T10:01:21.835Z,99363.02
2022-07-27T10:04:25.204Z,99358.20
2022-07-27T10:07:27.059Z,99357.63
2022-07-27T10:10:29.079Z,99356.98
2022-07-27T10:13:30.894Z,99354.65
2022-07-27T10:16:34.473Z,99355.06
2022-07-27T10:19:47.616Z,99351.50
2022-07-27T10:22:53.540Z,99349.82
2022-07-27T10:26:15.109Z,99345.70
2022-07-27T10:29:20.334Z,99349.77
2022-07-27T10:32:33.217Z,99353.66
2022-07-27T10:35:35.594Z,99354.77
2022-07-27T10:38:52.209Z,99360.54
2022-07-27T10:41:53.861Z,99348.21
2022-07-27T10:45:03.001Z,99345.02
2022-07-27T10:48:04.991Z,99349.78
2022-07-27T10:51:07.423Z,99349.27
2022-07-27T10:54:34.372Z,99353.04
2022-07-27T10:57:38.775Z,99347.98
2022-07-27T11:00:54.010Z,99352.66
2022-07-27T11:04:08.966Z,99351.48
2022-07-27T11:07:34.229Z,99356.89
2022-07-27T11:10:43.619Z,99350.30
2022-07-27T11:13:47.102Z,99347.27
2022-07-27T11:16:56.735Z,99342.48
2022-07-27T11:20:03.990Z,99340.80
2022-07-27T11:26:50.111Z,99333.65
2022-07-27T11:29:51.943Z,99332.84
2022-07-27T11:32:54.412Z,99327.64
2022-07-27T11:35:59.516Z,99323.81
2022-07-27T11:39:01.267Z,99325.72
2022-07-27T11:42:09.011Z,99323.38
2022-07-27T11:45:28.807Z,99319.23
2022-07-27T11:48:43.990Z,99314.89
2022-07-27T11:51:53.143Z,99312.41
2022-07-27T11:54:54.953Z,99312.27
2022-07-27T11:58:04.465Z,99314.65
2022-07-27T12:01:06.189Z,99316.27
2022-07-27T12:04:18.940Z,99312.86
2022-07-27T12:07:33.363Z,99309.63
2022-07-27T12:10:37.671Z,99304.41
2022-07-27T12:13:39.580Z,99300.69
2022-07-27T12:16:41.512Z,99300.98
2022-07-27T12:19:43.683Z,99301.02
2022-07-27T12:22:47.711Z,99299.48
2022-07-27T12:25:49.762Z,99294.23
2022-07-27T12:29:08.540Z,99292.32
2022-07-27T12:32:10.435Z,99290.49
2022-07-27T12:35:37.398Z,99291.86
2022-07-27T12:38:43.654Z,99291.48
2022-07-27T12:41:46.006Z,99289.70
2022-07-27T12:44:48.565Z,99294.20
2022-07-27T12:47:50.281Z,99287.52
2022-07-27T12:51:02.642Z,99287.49
2022-07-27T12:54:04.509Z,99287.00
2022-07-27T12:57:06.309Z,99287.23
2022-07-27T13:00:14.389Z,99287.65
2022-07-27T13:03:16.436Z,99286.52
2022-07-27T13:06:18.234Z,99292.80
2022-07-27T13:09:20.020Z,99293.58
2022-07-27T13:12:22.284Z,99293.95
2022-07-27T13:15:24.287Z,99297.00
2022-07-27T13:18:26.137Z,99294.69
2022-07-27T13:21:27.993Z,99293.08
2022-07-27T13:24:29.764Z,99293.77
2022-07-27T13:27:31.579Z,99292.05
2022-07-27T13:30:33.364Z,99287.82
2022-07-27T13:33:35.028Z,99290.48
2022-07-27T13:36:36.799Z,99285.99
2022-07-27T13:39:38.620Z,99286.63
2022-07-27T13:42:40.471Z,99288.52
2022-07-27T13:45:43.576Z,99282.94
2022-07-27T13:48:45.734Z,99279.04
2022-07-27T13:51:47.946Z,99278.30
2022-07-27T13:54:50.358Z,99275.34
2022-07-27T13:57:52.129Z,99273.86
2022-07-27T14:00:54.207Z,99271.64
2022-07-27T14:03:56.131Z,99269.27
2022-07-27T14:06:58.947Z,99262.82
2022-07-27T14:10:19.391Z,99264.11
2022-07-27T14:13:22.485Z,99266.45
2022-07-27T14:16:24.901Z,99262.17
2022-07-27T14:19:28.243Z,99260.90
2022-07-27T14:22:29.929Z,99257.41
2022-07-27T14:25:31.731Z,99263.29
2022-07-27T14:28:33.786Z,99262.03
2022-07-27T14:31:35.749Z,99261.46
2022-07-27T14:34:37.636Z,99257.09
2022-07-27T14:37:39.528Z,99258.71
2022-07-27T14:40:41.477Z,99254.24
2022-07-27T14:43:43.651Z,99253.66
2022-07-27T14:46:45.571Z,99255.23
2022-07-27T14:49:47.425Z,99253.27
2022-07-27T14:52:49.938Z,99252.08
2022-07-27T14:55:51.728Z,99251.26
2022-07-27T14:58:53.545Z,99253.73
2022-07-27T15:01:55.457Z,99250.24
2022-07-27T15:04:57.432Z,99253.54
2022-07-27T15:07:59.805Z,99248.87
2022-07-27T15:11:01.530Z,99241.52
2022-07-27T15:14:05.214Z,99243.93
2022-07-27T15:17:07.193Z,99240.78
2022-07-27T15:20:09.200Z,99242.04
2022-07-27T15:23:11.059Z,99245.26
2022-07-27T15:26:13.351Z,99244.31
2022-07-27T15:29:15.731Z,99238.23
2022-07-27T15:32:17.873Z,99239.86
2022-07-27T15:35:19.768Z,99232.95
2022-07-27T15:38:21.589Z,99237.56
2022-07-27T15:41:23.485Z,99238.42
2022-07-27T15:44:25.265Z,99233.98
2022-07-27T15:47:26.968Z,99237.25
2022-07-27T15:50:28.769Z,99239.56
2022-07-27T15:53:30.604Z,99237.85
2022-07-27T15:56:32.400Z,99237.71
2022-07-27T15:59:34.217Z,99235.62
2022-07-27T16:02:36.008Z,99236.21
2022-07-27T16:05:39.177Z,99233.48
2022-07-27T16:08:41.089Z,99234.21
2022-07-27T16:11:43.010Z,99233.46
2022-07-27T16:14:45.077Z,99230.27
2022-07-27T16:17:46.780Z,99229.91
2022-07-27T16:20:48.723Z,99231.64
2022-07-27T16:23:52.123Z,99235.42
2022-07-27T16:26:54.529Z,99229.63
2022-07-27T16:29:56.236Z,99229.85
2022-07-27T16:32:58.709Z,99229.92
2022-07-27T16:36:00.586Z,99224.52
2022-07-27T16:39:02.340Z,99223.22
2022-07-27T16:42:04.376Z,99221.80
2022-07-27T16:45:07.030Z,99223.05
2022-07-27T16:48:09.037Z,99221.57
2022-07-27T16:51:15.132Z,99223.96
2022-07-27T16:54:17.074Z,99221.35
2022-07-27T16:57:18.878Z,99218.64
2022-07-27T17:00:20.846Z,99218.13
2022-07-27T17:03:22.729Z,99214.73
2022-07-27T17:06:26.223Z,99219.11
2022-07-27T17:09:28.070Z,99228.08
2022-07-27T17:12:30.390Z,99235.90
2022-07-27T17:15:33.380Z,99228.29
2022-07-27T17:18:40.194Z,99229.96
2022-07-27T17:21:43.295Z,99227.66
2022-07-27T17:24:45.347Z,99230.18
2022-07-27T17:27:47.642Z,99227.98
2022-07-27T17:30:49.403Z,99229.75
2022-07-27T17:33:51.478Z,99233.42
2022-07-27T17:36:53.289Z,99235.91
2022-07-27T17:39:55.093Z,99229.82
2022-07-27T17:42:56.829Z,99236.41
2022-07-27T17:45:58.943Z,99237.14
2022-07-27T17:49:00.813Z,99240.55
2022-07-27T17:52:02.659Z,99241.95
2022-07-27T17:55:05.405Z,99241.48
2022-07-27T17:58:07.235Z,99242.56
2022-07-27T18:01:09.388Z,99248.35
2022-07-27T18:04:11.306Z,99248.22
2022-07-27T18:07:13.534Z,99248.52
2022-07-27T18:10:15.296Z,99244.27
2022-07-27T18:13:17.799Z,99247.73
2022-07-27T18:16:19.747Z,99253.36
2022-07-27T18:19:21.767Z,99253.32
2022-07-27T18:22:23.641Z,99255.67
2022-07-27T18:25:25.415Z,99256.66
2022-07-27T18:28:27.168Z,99261.21
2022-07-27T18:31:29.037Z,99269.73
2022-07-27T18:34:30.979Z,99285.67
2022-07-27T18:37:32.792Z,99288.80
2022-07-27T18:40:39.430Z,99294.04
2022-07-27T18:43:41.174Z,99299.34
2022-07-27T18:46:43.208Z,99307.43
2022-07-27T18:49:45.678Z,99308.40
2022-07-27T18:52:47.384Z,99316.42
2022-07-27T18:55:52.709Z,99313.66
2022-07-27T18:58:57.590Z,99312.84
2022-07-27T19:01:59.359Z,99318.23
2022-07-27T19:05:01.186Z,99327.27
2022-07-27T19:08:03.813Z,99335.64
2022-07-27T19:11:05.530Z,99339.26
2022-07-27T19:14:07.329Z,99341.59
2022-07-27T19:17:14.601Z,99352.08
2022-07-27T19:20:17.024Z,99354.50
2022-07-27T19:23:19.001Z,99354.83
2022-07-27T19:26:21.081Z,99354.77
2022-07-27T19:29:22.986Z,99353.96
2022-07-27T19:32:24.787Z,99351.05
2022-07-27T19:35:26.827Z,99353.09
2022-07-27T19:38:28.573Z,99355.95
2022-07-27T19:41:30.973Z,99362.02
2022-07-27T19:44:32.707Z,99366.83
2022-07-27T19:47:35.244Z,99366.19
2022-07-27T19:50:37.136Z,99367.77
2022-07-27T19:53:41.139Z,99368.75
2022-07-27T19:56:46.234Z,99365.48
2022-07-27T19:59:56.039Z,99364.89
2022-07-27T20:02:58.585Z,99365.83
2022-07-27T20:06:02.338Z,99375.04
2022-07-27T20:09:05.794Z,99383.45
2022-07-27T20:12:08.399Z,99386.60
2022-07-27T20:15:10.459Z,99387.89
2022-07-27T20:18:12.280Z,99389.04
2022-07-27T20:21:23.028Z,99387.42
2022-07-27T20:24:26.923Z,99392.64
2022-07-27T20:27:29.025Z,99394.02
2022-07-27T20:30:32.048Z,99400.77
2022-07-27T20:33:33.845Z,99401.41
2022-07-27T20:36:35.801Z,99405.55
2022-07-27T20:39:37.669Z,99408.91
2022-07-27T20:42:41.161Z,99413.89
2022-07-27T20:45:43.437Z,99414.16
2022-07-27T20:48:45.233Z,99416.66
2022-07-27T20:51:47.132Z,99419.74
2022-07-27T20:54:49.282Z,99427.28
2022-07-27T20:57:51.074Z,99427.41
2022-07-27T21:00:52.846Z,99425.27
2022-07-27T21:03:54.602Z,99426.56
2022-07-27T21:06:56.403Z,99426.92
2022-07-27T21:09:58.410Z,99431.36
2022-07-27T21:13:00.179Z,99435.77
2022-07-27T21:16:01.984Z,99431.87
2022-07-27T21:19:04.089Z,99431.51
2022-07-27T21:22:06.161Z,99433.51
2022-07-27T21:25:08.762Z,99435.39
2022-07-27T21:28:10.542Z,99440.21
2022-07-27T21:31:14.307Z,99444.85
2022-07-27T21:34:17.823Z,99442.34
2022-07-27T21:37:19.729Z,99443.89
2022-07-27T21:40:21.449Z,99447.58
2022-07-27T21:43:23.219Z,99450.97
2022-07-27T21:46:24.936Z,99452.98
2022-07-27T21:49:34.169Z,99456.62
2022-07-27T21:52:36.564Z,99455.19
2022-07-27T21:55:39.173Z,99453.34
2022-07-27T21:58:45.130Z,99455.36
2022-07-27T22:01:46.859Z,99455.54
2022-07-27T22:04:48.650Z,99452.85
2022-07-27T22:07:51.261Z,99457.20
2022-07-27T22:10:53.722Z,99460.27
2022-07-27T22:13:55.508Z,99457.54
2022-07-27T22:16:57.524Z,99464.00
2022-07-27T22:19:59.360Z,99466.05
2022-07-27T22:23:01.314Z,99473.23
2022-07-27T22:26:03.144Z,99476.64
2022-07-27T22:29:04.896Z,99483.09
2022-07-27T22:32:08.023Z,99482.75
2022-07-27T22:35:09.896Z,99489.46
2022-07-27T22:38:11.722Z,99492.13
2022-07-27T22:41:13.966Z,99494.04
2022-07-27T22:44:15.890Z,99496.34
2022-07-27T22:47:20.985Z,99494.77
2022-07-27T22:50:23.371Z,99501.09
2022-07-27T22:53:25.150Z,99499.17
2022-07-27T22:56:26.949Z,99505.90
2022-07-27T22:59:28.833Z,99504.95
2022-07-27T23:02:30.825Z,99508.69
2022-07-27T23:05:32.600Z,99513.59
2022-07-27T23:08:34.358Z,99512.48
2022-07-27T23:11:36.033Z,99513.18
2022-07-27T23:14:37.760Z,99509.80
2022-07-27T23:17:39.491Z,99508.14
2022-07-27T23:20:41.354Z,99508.34
2022-07-27T23:23:52.164Z,99515.77
2022-07-27T23:26:56.501Z,99515.29
2022-07-27T23:29:58.182Z,99517.33
2022-07-27T23:32:59.966Z,99523.85
2022-07-27T23:36:06.440Z,99520.77
2022-07-27T23:39:08.183Z,99518.36
2022-07-27T23:42:09.864Z,99523.23
2022-07-27T23:45:11.856Z,99524.89
2022-07-27T23:48:13.747Z,99525.12
2022-07-27T23:51:17.925Z,99525.37
2022-07-27T23:54:19.754Z,99528.18
2022-07-27T23:57:22.362Z,99527.00
